sensor_id;sensor_type;location;lat;lon;timestamp;temperature;humidity
14727;DHT22;7454;51.256;8.176;2023-06-10T00:00:38;17.00;68.60
14727;DHT22;7454;51.256;8.176;2023-06-10T00:03:06;16.90;68.60
14727;DHT22;7454;51.256;8.176;2023-06-10T00:05:32;16.90;68.70
14727;DHT22;7454;51.256;8.176;2023-06-10T00:08:00;16.90;68.70
14727;DHT22;7454;51.256;8.176;2023-06-10T00:10:35;16.90;68.80
14727;DHT22;7454;51.256;8.176;2023-06-10T00:13:03;16.80;68.80
14727;DHT22;7454;51.256;8.176;2023-06-10T00:15:29;16.80;68.90
14727;DHT22;7454;51.256;8.176;2023-06-10T00:17:55;16.80;68.80
14727;DHT22;7454;51.256;8.176;2023-06-10T00:20:21;16.70;68.90
14727;DHT22;7454;51.256;8.176;2023-06-10T00:22:51;16.70;68.90
14727;DHT22;7454;51.256;8.176;2023-06-10T00:25:17;16.70;69.00
14727;DHT22;7454;51.256;8.176;2023-06-10T00:27:44;16.70;69.00
14727;DHT22;7454;51.256;8.176;2023-06-10T00:30:10;16.60;69.00
14727;DHT22;7454;51.256;8.176;2023-06-10T00:32:36;16.70;69.10
14727;DHT22;7454;51.256;8.176;2023-06-10T00:35:05;16.60;69.00
14727;DHT22;7454;51.256;8.176;2023-06-10T00:37:31;16.60;69.10
14727;DHT22;7454;51.256;8.176;2023-06-10T00:39:58;16.60;69.10
14727;DHT22;7454;51.256;8.176;2023-06-10T00:42:24;16.50;69.10
14727;DHT22;7454;51.256;8.176;2023-06-10T00:44:50;16.40;69.10
14727;DHT22;7454;51.256;8.176;2023-06-10T00:47:16;16.50;69.20
14727;DHT22;7454;51.256;8.176;2023-06-10T00:49:42;16.40;69.30
14727;DHT22;7454;51.256;8.176;2023-06-10T00:52:08;16.30;69.20
14727;DHT22;7454;51.256;8.176;2023-06-10T00:54:36;16.30;69.30
14727;DHT22;7454;51.256;8.176;2023-06-10T00:57:03;16.20;69.30
14727;DHT22;7454;51.256;8.176;2023-06-10T00:59:29;16.20;69.30
14727;DHT22;7454;51.256;8.176;2023-06-10T01:01:56;16.20;69.30
14727;DHT22;7454;51.256;8.176;2023-06-10T01:04:22;16.20;69.30
14727;DHT22;7454;51.256;8.176;2023-06-10T01:06:54;16.10;69.40
14727;DHT22;7454;51.256;8.176;2023-06-10T01:09:33;16.10;69.40
14727;DHT22;7454;51.256;8.176;2023-06-10T01:12:11;16.10;69.50
14727;DHT22;7454;51.256;8.176;2023-06-10T01:14:42;16.10;69.50
14727;DHT22;7454;51.256;8.176;2023-06-10T01:17:09;16.10;69.60
14727;DHT22;7454;51.256;8.176;2023-06-10T01:19:35;16.10;69.60
14727;DHT22;7454;51.256;8.176;2023-06-10T01:22:01;16.00;69.70
14727;DHT22;7454;51.256;8.176;2023-06-10T01:24:28;16.00;69.70
14727;DHT22;7454;51.256;8.176;2023-06-10T01:26:54;15.90;69.60
14727;DHT22;7454;51.256;8.176;2023-06-10T01:29:23;15.80;69.60
14727;DHT22;7454;51.256;8.176;2023-06-10T01:32:08;15.80;69.70
14727;DHT22;7454;51.256;8.176;2023-06-10T01:34:37;15.70;69.70
14727;DHT22;7454;51.256;8.176;2023-06-10T01:37:04;15.70;69.70
14727;DHT22;7454;51.256;8.176;2023-06-10T01:39:30;15.70;69.80
14727;DHT22;7454;51.256;8.176;2023-06-10T01:41:57;15.70;69.80
14727;DHT22;7454;51.256;8.176;2023-06-10T01:44:23;15.70;69.90
14727;DHT22;7454;51.256;8.176;2023-06-10T01:46:49;15.70;69.90
14727;DHT22;7454;51.256;8.176;2023-06-10T01:49:15;15.60;69.90
14727;DHT22;7454;51.256;8.176;2023-06-10T01:51:43;15.50;69.90
14727;DHT22;7454;51.256;8.176;2023-06-10T01:54:08;15.50;69.90
14727;DHT22;7454;51.256;8.176;2023-06-10T01:56:34;15.50;69.90
14727;DHT22;7454;51.256;8.176;2023-06-10T01:59:01;15.40;69.90
14727;DHT22;7454;51.256;8.176;2023-06-10T02:01:26;15.40;69.90
14727;DHT22;7454;51.256;8.176;2023-06-10T02:03:52;15.30;70.00
14727;DHT22;7454;51.256;8.176;2023-06-10T02:06:18;15.30;70.10
14727;DHT22;7454;51.256;8.176;2023-06-10T02:08:43;15.30;70.10
14727;DHT22;7454;51.256;8.176;2023-06-10T02:11:09;15.30;70.10
14727;DHT22;7454;51.256;8.176;2023-06-10T02:13:35;15.30;70.10
14727;DHT22;7454;51.256;8.176;2023-06-10T02:16:00;15.30;70.20
14727;DHT22;7454;51.256;8.176;2023-06-10T02:18:28;15.20;70.20
14727;DHT22;7454;51.256;8.176;2023-06-10T02:20:54;15.20;70.20
14727;DHT22;7454;51.256;8.176;2023-06-10T02:23:19;15.20;70.20
14727;DHT22;7454;51.256;8.176;2023-06-10T02:25:45;15.20;70.30
14727;DHT22;7454;51.256;8.176;2023-06-10T02:28:12;15.10;70.20
14727;DHT22;7454;51.256;8.176;2023-06-10T02:30:39;15.00;70.10
14727;DHT22;7454;51.256;8.176;2023-06-10T02:33:06;15.00;70.20
14727;DHT22;7454;51.256;8.176;2023-06-10T02:35:37;14.90;70.10
14727;DHT22;7454;51.256;8.176;2023-06-10T02:38:04;15.00;70.20
14727;DHT22;7454;51.256;8.176;2023-06-10T02:40:31;15.00;70.30
14727;DHT22;7454;51.256;8.176;2023-06-10T02:42:57;15.00;70.30
14727;DHT22;7454;51.256;8.176;2023-06-10T02:45:24;15.00;70.40
14727;DHT22;7454;51.256;8.176;2023-06-10T02:47:50;15.00;70.40
14727;DHT22;7454;51.256;8.176;2023-06-10T02:50:16;15.00;70.40
14727;DHT22;7454;51.256;8.176;2023-06-10T02:52:56;15.10;70.50
14727;DHT22;7454;51.256;8.176;2023-06-10T02:55:22;15.00;70.50
14727;DHT22;7454;51.256;8.176;2023-06-10T02:57:55;14.90;70.50
14727;DHT22;7454;51.256;8.176;2023-06-10T03:00:21;14.90;70.50
14727;DHT22;7454;51.256;8.176;2023-06-10T03:02:48;14.90;70.50
14727;DHT22;7454;51.256;8.176;2023-06-10T03:05:15;14.90;70.60
14727;DHT22;7454;51.256;8.176;2023-06-10T03:07:45;14.80;70.50
14727;DHT22;7454;51.256;8.176;2023-06-10T03:10:12;14.70;70.50
14727;DHT22;7454;51.256;8.176;2023-06-10T03:12:39;14.80;70.50
14727;DHT22;7454;51.256;8.176;2023-06-10T03:15:05;14.70;70.50
14727;DHT22;7454;51.256;8.176;2023-06-10T03:17:32;14.70;70.50
14727;DHT22;7454;51.256;8.176;2023-06-10T03:19:57;14.90;70.60
14727;DHT22;7454;51.256;8.176;2023-06-10T03:22:23;14.70;70.50
14727;DHT22;7454;51.256;8.176;2023-06-10T03:25:00;14.60;70.50
14727;DHT22;7454;51.256;8.176;2023-06-10T03:27:27;14.60;70.60
14727;DHT22;7454;51.256;8.176;2023-06-10T03:29:56;14.60;70.60
14727;DHT22;7454;51.256;8.176;2023-06-10T03:32:22;14.60;70.90
14727;DHT22;7454;51.256;8.176;2023-06-10T03:34:48;14.60;70.80
14727;DHT22;7454;51.256;8.176;2023-06-10T03:37:14;14.60;70.80
14727;DHT22;7454;51.256;8.176;2023-06-10T03:39:41;14.60;70.80
14727;DHT22;7454;51.256;8.176;2023-06-10T03:42:07;14.60;70.80
14727;DHT22;7454;51.256;8.176;2023-06-10T03:44:33;14.60;70.70
14727;DHT22;7454;51.256;8.176;2023-06-10T03:46:59;14.40;70.50
14727;DHT22;7454;51.256;8.176;2023-06-10T03:49:25;14.50;70.70
14727;DHT22;7454;51.256;8.176;2023-06-10T03:51:56;14.50;70.60
14727;DHT22;7454;51.256;8.176;2023-06-10T03:54:21;14.50;70.60
14727;DHT22;7454;51.256;8.176;2023-06-10T03:56:48;14.50;70.70
14727;DHT22;7454;51.256;8.176;2023-06-10T03:59:13;14.50;70.70
14727;DHT22;7454;51.256;8.176;2023-06-10T04:01:39;14.50;70.70
14727;DHT22;7454;51.256;8.176;2023-06-10T04:04:06;14.50;70.80
14727;DHT22;7454;51.256;8.176;2023-06-10T04:06:33;14.50;70.90
14727;DHT22;7454;51.256;8.176;2023-06-10T04:08:59;14.60;70.90
14727;DHT22;7454;51.256;8.176;2023-06-10T04:11:27;14.50;70.90
14727;DHT22;7454;51.256;8.176;2023-06-10T04:13:52;14.50;70.90
14727;DHT22;7454;51.256;8.176;2023-06-10T04:16:18;14.50;70.90
14727;DHT22;7454;51.256;8.176;2023-06-10T04:18:46;14.60;71.00
14727;DHT22;7454;51.256;8.176;2023-06-10T04:21:12;14.60;71.00
14727;DHT22;7454;51.256;8.176;2023-06-10T04:23:38;14.50;71.00
14727;DHT22;7454;51.256;8.176;2023-06-10T04:26:04;14.60;70.90
14727;DHT22;7454;51.256;8.176;2023-06-10T04:28:31;14.60;70.90
14727;DHT22;7454;51.256;8.176;2023-06-10T04:30:58;14.50;70.90
14727;DHT22;7454;51.256;8.176;2023-06-10T04:33:24;14.50;70.90
14727;DHT22;7454;51.256;8.176;2023-06-10T04:35:50;14.50;71.00
14727;DHT22;7454;51.256;8.176;2023-06-10T04:38:17;14.50;71.00
14727;DHT22;7454;51.256;8.176;2023-06-10T04:40:44;14.30;71.00
14727;DHT22;7454;51.256;8.176;2023-06-10T04:43:11;14.50;71.20
14727;DHT22;7454;51.256;8.176;2023-06-10T04:45:37;14.60;71.20
14727;DHT22;7454;51.256;8.176;2023-06-10T04:48:03;14.70;71.30
14727;DHT22;7454;51.256;8.176;2023-06-10T04:50:28;14.70;71.40
14727;DHT22;7454;51.256;8.176;2023-06-10T04:52:54;14.70;71.40
14727;DHT22;7454;51.256;8.176;2023-06-10T04:55:22;14.80;71.40
14727;DHT22;7454;51.256;8.176;2023-06-10T04:57:48;14.80;71.40
14727;DHT22;7454;51.256;8.176;2023-06-10T05:00:15;14.90;71.40
14727;DHT22;7454;51.256;8.176;2023-06-10T05:02:41;14.90;71.40
14727;DHT22;7454;51.256;8.176;2023-06-10T05:05:06;14.90;71.40
14727;DHT22;7454;51.256;8.176;2023-06-10T05:07:32;15.00;71.40
14727;DHT22;7454;51.256;8.176;2023-06-10T05:09:58;15.00;71.40
14727;DHT22;7454;51.256;8.176;2023-06-10T05:12:23;15.00;71.40
14727;DHT22;7454;51.256;8.176;2023-06-10T05:14:49;15.10;71.40
14727;DHT22;7454;51.256;8.176;2023-06-10T05:17:15;15.10;71.50
14727;DHT22;7454;51.256;8.176;2023-06-10T05:19:41;15.20;71.50
14727;DHT22;7454;51.256;8.176;2023-06-10T05:22:08;15.20;71.60
14727;DHT22;7454;51.256;8.176;2023-06-10T05:24:34;15.30;71.60
14727;DHT22;7454;51.256;8.176;2023-06-10T05:26:59;15.40;71.60
14727;DHT22;7454;51.256;8.176;2023-06-10T05:29:25;15.50;71.50
14727;DHT22;7454;51.256;8.176;2023-06-10T05:31:51;15.50;71.60
14727;DHT22;7454;51.256;8.176;2023-06-10T05:34:17;15.60;71.70
14727;DHT22;7454;51.256;8.176;2023-06-10T05:36:42;15.60;71.70
14727;DHT22;7454;51.256;8.176;2023-06-10T05:39:09;15.80;71.80
14727;DHT22;7454;51.256;8.176;2023-06-10T05:41:34;15.80;71.70
14727;DHT22;7454;51.256;8.176;2023-06-10T05:44:00;15.80;71.70
14727;DHT22;7454;51.256;8.176;2023-06-10T05:46:26;15.90;71.80
14727;DHT22;7454;51.256;8.176;2023-06-10T05:48:51;16.00;71.90
14727;DHT22;7454;51.256;8.176;2023-06-10T05:51:17;16.10;71.90
14727;DHT22;7454;51.256;8.176;2023-06-10T05:53:43;16.10;71.90
14727;DHT22;7454;51.256;8.176;2023-06-10T05:56:08;16.20;71.90
14727;DHT22;7454;51.256;8.176;2023-06-10T05:58:34;16.30;71.90
14727;DHT22;7454;51.256;8.176;2023-06-10T06:00:59;16.30;72.00
14727;DHT22;7454;51.256;8.176;2023-06-10T06:03:25;16.50;71.80
14727;DHT22;7454;51.256;8.176;2023-06-10T06:05:51;16.50;71.90
14727;DHT22;7454;51.256;8.176;2023-06-10T06:08:16;16.60;72.00
14727;DHT22;7454;51.256;8.176;2023-06-10T06:10:47;16.70;72.20
14727;DHT22;7454;51.256;8.176;2023-06-10T06:13:15;16.80;72.20
14727;DHT22;7454;51.256;8.176;2023-06-10T06:15:41;16.80;72.00
14727;DHT22;7454;51.256;8.176;2023-06-10T06:18:06;16.90;71.90
14727;DHT22;7454;51.256;8.176;2023-06-10T06:20:32;17.00;72.10
14727;DHT22;7454;51.256;8.176;2023-06-10T06:22:58;17.10;72.10
14727;DHT22;7454;51.256;8.176;2023-06-10T06:25:23;17.10;72.20
14727;DHT22;7454;51.256;8.176;2023-06-10T06:27:49;17.20;72.20
14727;DHT22;7454;51.256;8.176;2023-06-10T06:30:15;17.30;72.30
14727;DHT22;7454;51.256;8.176;2023-06-10T06:32:40;17.40;72.30
14727;DHT22;7454;51.256;8.176;2023-06-10T06:35:06;17.50;72.30
14727;DHT22;7454;51.256;8.176;2023-06-10T06:37:33;17.60;72.00
14727;DHT22;7454;51.256;8.176;2023-06-10T06:40:14;17.70;71.90
14727;DHT22;7454;51.256;8.176;2023-06-10T06:42:40;17.80;71.90
14727;DHT22;7454;51.256;8.176;2023-06-10T06:45:14;17.90;72.00
14727;DHT22;7454;51.256;8.176;2023-06-10T06:47:40;18.00;71.90
14727;DHT22;7454;51.256;8.176;2023-06-10T06:50:06;18.20;71.80
14727;DHT22;7454;51.256;8.176;2023-06-10T06:52:32;18.40;71.50
14727;DHT22;7454;51.256;8.176;2023-06-10T06:54:57;18.50;71.80
14727;DHT22;7454;51.256;8.176;2023-06-10T06:57:23;18.60;72.00
14727;DHT22;7454;51.256;8.176;2023-06-10T06:59:49;18.70;71.80
14727;DHT22;7454;51.256;8.176;2023-06-10T07:02:14;18.90;71.60
14727;DHT22;7454;51.256;8.176;2023-06-10T07:04:40;19.00;71.60
14727;DHT22;7454;51.256;8.176;2023-06-10T07:07:07;19.20;71.20
14727;DHT22;7454;51.256;8.176;2023-06-10T07:09:33;19.30;70.70
14727;DHT22;7454;51.256;8.176;2023-06-10T07:11:59;19.50;70.50
14727;DHT22;7454;51.256;8.176;2023-06-10T07:14:24;19.60;70.50
14727;DHT22;7454;51.256;8.176;2023-06-10T07:16:51;19.70;70.50
14727;DHT22;7454;51.256;8.176;2023-06-10T07:19:17;19.90;70.40
14727;DHT22;7454;51.256;8.176;2023-06-10T07:21:42;20.00;70.90
14727;DHT22;7454;51.256;8.176;2023-06-10T07:24:08;20.10;70.70
14727;DHT22;7454;51.256;8.176;2023-06-10T07:26:34;20.30;70.60
14727;DHT22;7454;51.256;8.176;2023-06-10T07:28:59;20.40;70.60
14727;DHT22;7454;51.256;8.176;2023-06-10T07:31:25;20.60;70.50
14727;DHT22;7454;51.256;8.176;2023-06-10T07:33:51;20.70;70.60
14727;DHT22;7454;51.256;8.176;2023-06-10T07:36:16;20.80;70.50
14727;DHT22;7454;51.256;8.176;2023-06-10T07:38:42;20.90;70.80
14727;DHT22;7454;51.256;8.176;2023-06-10T07:41:08;21.00;70.60
14727;DHT22;7454;51.256;8.176;2023-06-10T07:43:34;21.10;70.40
14727;DHT22;7454;51.256;8.176;2023-06-10T07:46:00;21.30;70.60
14727;DHT22;7454;51.256;8.176;2023-06-10T07:48:25;21.40;70.30
14727;DHT22;7454;51.256;8.176;2023-06-10T07:50:51;21.50;70.40
14727;DHT22;7454;51.256;8.176;2023-06-10T07:53:17;21.60;70.40
14727;DHT22;7454;51.256;8.176;2023-06-10T07:55:43;21.70;70.40
14727;DHT22;7454;51.256;8.176;2023-06-10T07:58:09;21.80;70.40
14727;DHT22;7454;51.256;8.176;2023-06-10T08:00:35;21.80;70.10
14727;DHT22;7454;51.256;8.176;2023-06-10T08:03:01;21.90;70.60
14727;DHT22;7454;51.256;8.176;2023-06-10T08:05:26;22.10;70.50
14727;DHT22;7454;51.256;8.176;2023-06-10T08:07:52;22.20;70.40
14727;DHT22;7454;51.256;8.176;2023-06-10T08:10:18;22.30;70.40
14727;DHT22;7454;51.256;8.176;2023-06-10T08:12:44;22.50;70.70
14727;DHT22;7454;51.256;8.176;2023-06-10T08:15:09;22.50;70.60
14727;DHT22;7454;51.256;8.176;2023-06-10T08:17:36;22.70;70.30
14727;DHT22;7454;51.256;8.176;2023-06-10T08:20:02;22.70;69.90
14727;DHT22;7454;51.256;8.176;2023-06-10T08:22:28;22.90;70.00
14727;DHT22;7454;51.256;8.176;2023-06-10T08:24:54;23.20;69.80
14727;DHT22;7454;51.256;8.176;2023-06-10T08:27:21;23.10;69.60
14727;DHT22;7454;51.256;8.176;2023-06-10T08:29:47;23.20;69.50
14727;DHT22;7454;51.256;8.176;2023-06-10T08:32:12;23.30;69.70
14727;DHT22;7454;51.256;8.176;2023-06-10T08:34:38;23.40;69.10
14727;DHT22;7454;51.256;8.176;2023-06-10T08:37:04;23.60;69.30
14727;DHT22;7454;51.256;8.176;2023-06-10T08:39:30;23.60;69.00
14727;DHT22;7454;51.256;8.176;2023-06-10T08:44:37;23.70;67.70
14727;DHT22;7454;51.256;8.176;2023-06-10T08:47:06;23.90;67.60
14727;DHT22;7454;51.256;8.176;2023-06-10T08:49:38;23.80;66.90
14727;DHT22;7454;51.256;8.176;2023-06-10T08:52:14;23.80;66.40
14727;DHT22;7454;51.256;8.176;2023-06-10T08:54:55;24.00;66.20
14727;DHT22;7454;51.256;8.176;2023-06-10T08:57:22;24.10;66.40
14727;DHT22;7454;51.256;8.176;2023-06-10T08:59:48;24.20;66.10
14727;DHT22;7454;51.256;8.176;2023-06-10T09:02:15;24.20;65.80
14727;DHT22;7454;51.256;8.176;2023-06-10T09:04:44;24.30;66.00
14727;DHT22;7454;51.256;8.176;2023-06-10T09:07:10;24.20;65.70
14727;DHT22;7454;51.256;8.176;2023-06-10T09:09:36;24.30;65.40
14727;DHT22;7454;51.256;8.176;2023-06-10T09:12:02;24.20;65.20
14727;DHT22;7454;51.256;8.176;2023-06-10T09:14:28;24.20;65.10
14727;DHT22;7454;51.256;8.176;2023-06-10T09:16:54;24.30;65.10
14727;DHT22;7454;51.256;8.176;2023-06-10T09:19:23;24.30;65.00
14727;DHT22;7454;51.256;8.176;2023-06-10T09:21:49;24.40;64.80
14727;DHT22;7454;51.256;8.176;2023-06-10T09:24:15;24.40;64.70
14727;DHT22;7454;51.256;8.176;2023-06-10T09:26:41;24.60;64.90
14727;DHT22;7454;51.256;8.176;2023-06-10T09:29:08;24.50;64.80
14727;DHT22;7454;51.256;8.176;2023-06-10T09:31:35;24.60;64.20
14727;DHT22;7454;51.256;8.176;2023-06-10T09:34:11;24.60;64.50
14727;DHT22;7454;51.256;8.176;2023-06-10T09:36:38;24.50;64.20
14727;DHT22;7454;51.256;8.176;2023-06-10T09:39:05;24.60;64.30
14727;DHT22;7454;51.256;8.176;2023-06-10T09:41:35;24.50;64.40
14727;DHT22;7454;51.256;8.176;2023-06-10T09:44:01;24.60;64.00
14727;DHT22;7454;51.256;8.176;2023-06-10T09:46:31;24.80;64.20
14727;DHT22;7454;51.256;8.176;2023-06-10T09:49:00;25.00;64.20
14727;DHT22;7454;51.256;8.176;2023-06-10T09:51:26;25.10;64.20
14727;DHT22;7454;51.256;8.176;2023-06-10T09:53:51;25.00;64.00
14727;DHT22;7454;51.256;8.176;2023-06-10T09:56:18;25.20;64.40
14727;DHT22;7454;51.256;8.176;2023-06-10T09:58:44;25.30;64.00
14727;DHT22;7454;51.256;8.176;2023-06-10T10:01:11;25.20;64.00
14727;DHT22;7454;51.256;8.176;2023-06-10T10:03:45;25.40;64.10
14727;DHT22;7454;51.256;8.176;2023-06-10T10:06:14;25.30;63.80
14727;DHT22;7454;51.256;8.176;2023-06-10T10:08:40;25.30;63.60
14727;DHT22;7454;51.256;8.176;2023-06-10T10:11:06;25.40;63.80
14727;DHT22;7454;51.256;8.176;2023-06-10T10:13:33;25.30;63.80
14727;DHT22;7454;51.256;8.176;2023-06-10T10:16:01;25.40;63.70
14727;DHT22;7454;51.256;8.176;2023-06-10T10:18:30;25.40;63.40
14727;DHT22;7454;51.256;8.176;2023-06-10T10:20:57;25.50;63.30
14727;DHT22;7454;51.256;8.176;2023-06-10T10:23:29;25.40;63.20
14727;DHT22;7454;51.256;8.176;2023-06-10T10:25:57;25.30;63.20
14727;DHT22;7454;51.256;8.176;2023-06-10T10:28:26;25.40;63.20
14727;DHT22;7454;51.256;8.176;2023-06-10T10:31:02;25.30;63.10
14727;DHT22;7454;51.256;8.176;2023-06-10T10:36:23;25.30;62.70
14727;DHT22;7454;51.256;8.176;2023-06-10T10:38:49;25.30;62.70
14727;DHT22;7454;51.256;8.176;2023-06-10T10:41:15;25.30;62.90
14727;DHT22;7454;51.256;8.176;2023-06-10T10:43:42;25.30;62.70
14727;DHT22;7454;51.256;8.176;2023-06-10T10:46:16;25.30;62.90
14727;DHT22;7454;51.256;8.176;2023-06-10T10:48:42;25.30;63.00
14727;DHT22;7454;51.256;8.176;2023-06-10T10:51:09;25.30;63.00
14727;DHT22;7454;51.256;8.176;2023-06-10T10:53:38;25.40;63.00
14727;DHT22;7454;51.256;8.176;2023-06-10T10:56:08;25.40;62.90
14727;DHT22;7454;51.256;8.176;2023-06-10T10:58:38;25.50;62.90
14727;DHT22;7454;51.256;8.176;2023-06-10T11:01:11;25.50;63.00
14727;DHT22;7454;51.256;8.176;2023-06-10T11:03:42;25.50;62.90
14727;DHT22;7454;51.256;8.176;2023-06-10T11:06:13;25.50;62.80
14727;DHT22;7454;51.256;8.176;2023-06-10T11:11:18;25.60;62.50
14727;DHT22;7454;51.256;8.176;2023-06-10T11:14:25;25.60;62.90
14727;DHT22;7454;51.256;8.176;2023-06-10T11:16:41;25.60;62.80
14727;DHT22;7454;51.256;8.176;2023-06-10T11:19:07;25.80;62.80
14727;DHT22;7454;51.256;8.176;2023-06-10T11:21:37;25.70;62.50
14727;DHT22;7454;51.256;8.176;2023-06-10T11:24:23;25.70;62.40
14727;DHT22;7454;51.256;8.176;2023-06-10T11:26:48;25.70;62.90
14727;DHT22;7454;51.256;8.176;2023-06-10T11:29:14;25.70;62.80
14727;DHT22;7454;51.256;8.176;2023-06-10T11:31:41;25.70;62.60
14727;DHT22;7454;51.256;8.176;2023-06-10T11:34:11;25.50;62.00
14727;DHT22;7454;51.256;8.176;2023-06-10T11:36:38;25.60;62.10
14727;DHT22;7454;51.256;8.176;2023-06-10T11:39:06;25.60;62.30
14727;DHT22;7454;51.256;8.176;2023-06-10T11:41:32;25.60;62.50
14727;DHT22;7454;51.256;8.176;2023-06-10T11:44:09;25.60;62.60
14727;DHT22;7454;51.256;8.176;2023-06-10T11:46:35;25.70;62.80
14727;DHT22;7454;51.256;8.176;2023-06-10T11:49:01;25.70;62.40
14727;DHT22;7454;51.256;8.176;2023-06-10T11:51:30;25.70;62.20
14727;DHT22;7454;51.256;8.176;2023-06-10T11:53:58;25.70;62.40
14727;DHT22;7454;51.256;8.176;2023-06-10T11:56:24;25.70;62.60
14727;DHT22;7454;51.256;8.176;2023-06-10T11:58:52;25.70;62.30
14727;DHT22;7454;51.256;8.176;2023-06-10T12:01:19;25.60;62.30
14727;DHT22;7454;51.256;8.176;2023-06-10T12:03:46;25.70;62.30
14727;DHT22;7454;51.256;8.176;2023-06-10T12:06:12;25.50;62.50
14727;DHT22;7454;51.256;8.176;2023-06-10T12:08:41;25.50;62.20
14727;DHT22;7454;51.256;8.176;2023-06-10T12:11:08;25.60;62.40
14727;DHT22;7454;51.256;8.176;2023-06-10T12:13:33;25.60;62.30
14727;DHT22;7454;51.256;8.176;2023-06-10T12:16:06;25.60;62.30
14727;DHT22;7454;51.256;8.176;2023-06-10T12:18:33;25.50;62.10
14727;DHT22;7454;51.256;8.176;2023-06-10T12:20:59;25.60;62.20
14727;DHT22;7454;51.256;8.176;2023-06-10T12:23:24;25.60;62.30
14727;DHT22;7454;51.256;8.176;2023-06-10T12:25:54;25.50;62.10
14727;DHT22;7454;51.256;8.176;2023-06-10T12:28:20;25.70;62.30
14727;DHT22;7454;51.256;8.176;2023-06-10T12:30:50;25.80;62.60
14727;DHT22;7454;51.256;8.176;2023-06-10T12:33:16;25.60;62.50
14727;DHT22;7454;51.256;8.176;2023-06-10T12:35:52;25.70;62.70
14727;DHT22;7454;51.256;8.176;2023-06-10T12:38:24;25.50;62.60
14727;DHT22;7454;51.256;8.176;2023-06-10T12:40:52;25.40;62.80
14727;DHT22;7454;51.256;8.176;2023-06-10T12:43:24;25.50;62.80
14727;DHT22;7454;51.256;8.176;2023-06-10T12:45:51;25.50;62.80
14727;DHT22;7454;51.256;8.176;2023-06-10T12:48:23;25.30;62.70
14727;DHT22;7454;51.256;8.176;2023-06-10T12:50:56;25.50;62.90
14727;DHT22;7454;51.256;8.176;2023-06-10T12:53:23;25.50;62.90
14727;DHT22;7454;51.256;8.176;2023-06-10T12:55:51;25.50;62.80
14727;DHT22;7454;51.256;8.176;2023-06-10T12:58:19;25.40;62.80
14727;DHT22;7454;51.256;8.176;2023-06-10T13:00:45;25.40;62.70
14727;DHT22;7454;51.256;8.176;2023-06-10T13:03:11;25.40;62.70
14727;DHT22;7454;51.256;8.176;2023-06-10T13:05:37;25.40;62.80
14727;DHT22;7454;51.256;8.176;2023-06-10T13:08:04;25.40;62.60
14727;DHT22;7454;51.256;8.176;2023-06-10T13:10:31;25.40;62.70
14727;DHT22;7454;51.256;8.176;2023-06-10T13:12:57;25.40;63.10
14727;DHT22;7454;51.256;8.176;2023-06-10T13:15:22;25.50;63.00
14727;DHT22;7454;51.256;8.176;2023-06-10T13:17:48;25.50;62.90
14727;DHT22;7454;51.256;8.176;2023-06-10T13:20:17;25.60;62.90
14727;DHT22;7454;51.256;8.176;2023-06-10T13:22:42;25.70;63.00
14727;DHT22;7454;51.256;8.176;2023-06-10T13:25:09;25.50;62.80
14727;DHT22;7454;51.256;8.176;2023-06-10T13:27:35;25.60;62.90
14727;DHT22;7454;51.256;8.176;2023-06-10T13:30:07;25.50;62.90
14727;DHT22;7454;51.256;8.176;2023-06-10T13:32:34;25.40;63.00
14727;DHT22;7454;51.256;8.176;2023-06-10T13:34:59;25.40;62.90
14727;DHT22;7454;51.256;8.176;2023-06-10T13:37:25;25.50;63.20
14727;DHT22;7454;51.256;8.176;2023-06-10T13:39:51;25.70;63.00
14727;DHT22;7454;51.256;8.176;2023-06-10T13:42:17;25.60;62.90
14727;DHT22;7454;51.256;8.176;2023-06-10T13:44:43;25.60;62.80
14727;DHT22;7454;51.256;8.176;2023-06-10T13:47:09;25.80;62.70
14727;DHT22;7454;51.256;8.176;2023-06-10T13:49:35;25.80;63.00
14727;DHT22;7454;51.256;8.176;2023-06-10T13:52:01;26.00;63.00
14727;DHT22;7454;51.256;8.176;2023-06-10T13:54:27;25.80;63.00
14727;DHT22;7454;51.256;8.176;2023-06-10T13:56:53;25.80;63.10
14727;DHT22;7454;51.256;8.176;2023-06-10T13:59:19;25.80;62.80
14727;DHT22;7454;51.256;8.176;2023-06-10T14:01:45;25.80;62.90
14727;DHT22;7454;51.256;8.176;2023-06-10T14:04:11;25.80;62.80
14727;DHT22;7454;51.256;8.176;2023-06-10T14:06:37;25.80;62.80
14727;DHT22;7454;51.256;8.176;2023-06-10T14:09:02;25.80;62.80
14727;DHT22;7454;51.256;8.176;2023-06-10T14:11:28;25.80;63.10
14727;DHT22;7454;51.256;8.176;2023-06-10T14:13:54;25.80;62.60
14727;DHT22;7454;51.256;8.176;2023-06-10T14:16:22;25.70;62.40
14727;DHT22;7454;51.256;8.176;2023-06-10T14:18:47;25.80;62.50
14727;DHT22;7454;51.256;8.176;2023-06-10T14:21:13;25.80;62.70
14727;DHT22;7454;51.256;8.176;2023-06-10T14:23:38;25.80;62.40
14727;DHT22;7454;51.256;8.176;2023-06-10T14:26:04;25.70;62.90
14727;DHT22;7454;51.256;8.176;2023-06-10T14:28:32;25.60;62.50
14727;DHT22;7454;51.256;8.176;2023-06-10T14:30:58;25.70;62.80
14727;DHT22;7454;51.256;8.176;2023-06-10T14:33:23;25.60;62.80
14727;DHT22;7454;51.256;8.176;2023-06-10T14:35:49;25.60;62.70
14727;DHT22;7454;51.256;8.176;2023-06-10T14:38:15;25.60;62.90
14727;DHT22;7454;51.256;8.176;2023-06-10T14:40:40;25.70;62.70
14727;DHT22;7454;51.256;8.176;2023-06-10T14:43:06;25.70;62.90
14727;DHT22;7454;51.256;8.176;2023-06-10T14:45:39;25.70;62.50
14727;DHT22;7454;51.256;8.176;2023-06-10T14:48:05;25.70;62.70
14727;DHT22;7454;51.256;8.176;2023-06-10T14:50:32;25.80;62.50
14727;DHT22;7454;51.256;8.176;2023-06-10T14:53:00;25.90;62.30
14727;DHT22;7454;51.256;8.176;2023-06-10T14:55:25;25.80;62.20
14727;DHT22;7454;51.256;8.176;2023-06-10T14:57:51;25.90;62.50
14727;DHT22;7454;51.256;8.176;2023-06-10T15:00:17;26.00;62.50
14727;DHT22;7454;51.256;8.176;2023-06-10T15:02:45;26.10;62.60
14727;DHT22;7454;51.256;8.176;2023-06-10T15:05:13;26.20;62.70
14727;DHT22;7454;51.256;8.176;2023-06-10T15:07:40;26.20;62.70
14727;DHT22;7454;51.256;8.176;2023-06-10T15:10:06;26.20;62.70
14727;DHT22;7454;51.256;8.176;2023-06-10T15:12:32;26.10;62.50
14727;DHT22;7454;51.256;8.176;2023-06-10T15:14:58;25.90;62.30
14727;DHT22;7454;51.256;8.176;2023-06-10T15:17:23;25.90;62.70
14727;DHT22;7454;51.256;8.176;2023-06-10T15:19:49;25.80;62.70
14727;DHT22;7454;51.256;8.176;2023-06-10T15:22:15;25.60;62.70
14727;DHT22;7454;51.256;8.176;2023-06-10T15:24:40;25.50;62.80
14727;DHT22;7454;51.256;8.176;2023-06-10T15:27:06;25.40;62.90
14727;DHT22;7454;51.256;8.176;2023-06-10T15:29:32;25.40;62.90
14727;DHT22;7454;51.256;8.176;2023-06-10T15:31:57;25.30;62.80
14727;DHT22;7454;51.256;8.176;2023-06-10T15:34:23;25.40;62.50
14727;DHT22;7454;51.256;8.176;2023-06-10T15:36:49;25.40;63.00
14727;DHT22;7454;51.256;8.176;2023-06-10T15:39:14;25.40;62.80
14727;DHT22;7454;51.256;8.176;2023-06-10T15:41:40;25.50;62.90
14727;DHT22;7454;51.256;8.176;2023-06-10T15:44:06;25.50;62.80
14727;DHT22;7454;51.256;8.176;2023-06-10T15:46:31;25.50;62.80
14727;DHT22;7454;51.256;8.176;2023-06-10T15:48:59;25.50;63.00
14727;DHT22;7454;51.256;8.176;2023-06-10T15:51:25;25.50;63.00